Time;durP1;ratioP1;P1;durP2;ratioP2;P2;SDS_P1;SDS_P2;PMS_P1;PMS_P2;Temp;Humidity;BMP_temperature;BMP_pressure;BME280_temperature;BME280_humidity;BME280_pressure;Samples;Min_cycle;Max_cycle;Signal;HPM_P1;HPM_P2
2021/01/31 00:00:41;;;;;;;6.87;6.23;;;5.60;99.90;;;;;;5071934;28;20718;-50
2021/01/31 00:03:28;;;;;;;6.75;6.15;;;5.40;99.90;;;;;;5064489;28;20203;-51
2021/01/31 00:05:56;;;;;;;6.90;6.30;;;5.40;99.90;;;;;;5069259;28;20189;-50
2021/01/31 00:08:24;;;;;;;8.70;6.38;;;5.20;99.90;;;;;;5072127;28;20280;-50
2021/01/31 00:10:50;;;;;;;6.97;6.28;;;5.00;99.90;;;;;;5060932;28;20210;-51
2021/01/31 00:13:17;;;;;;;7.55;6.78;;;5.10;99.90;;;;;;5073899;28;20226;-51
2021/01/31 00:15:45;;;;;;;7.03;6.43;;;5.30;99.90;;;;;;5059004;28;20583;-51
2021/01/31 00:18:13;;;;;;;7.65;6.82;;;5.10;99.90;;;;;;5087025;28;20543;-50
2021/01/31 00:20:44;;;;;;;7.55;6.85;;;5.00;99.90;;;;;;5068830;28;20562;-51
2021/01/31 00:23:09;;;;;;;7.20;6.45;;;4.90;99.90;;;;;;5070975;28;20311;-50
2021/01/31 00:25:35;;;;;;;7.70;7.00;;;4.80;99.90;;;;;;5065197;28;20217;-50
2021/01/31 00:28:01;;;;;;;7.10;6.13;;;5.40;99.90;;;;;;5070786;28;20715;-50
2021/01/31 00:30:33;;;;;;;7.80;6.88;;;5.00;99.90;;;;;;5070810;28;20216;-49
2021/01/31 00:32:59;;;;;;;8.25;7.35;;;4.80;99.90;;;;;;5062805;28;20186;-53
2021/01/31 00:35:27;;;;;;;9.15;8.25;;;4.40;99.90;;;;;;5056576;28;20604;-50
2021/01/31 00:37:54;;;;;;;8.50;7.70;;;4.70;99.90;;;;;;5064974;28;20667;-50
2021/01/31 00:40:20;;;;;;;8.90;8.00;;;4.50;99.90;;;;;;5063672;28;20809;-50
2021/01/31 00:42:46;;;;;;;9.18;8.27;;;4.50;99.90;;;;;;5071127;28;20187;-50
2021/01/31 00:45:17;;;;;;;8.60;7.80;;;4.70;99.90;;;;;;5065806;28;20596;-50
2021/01/31 00:47:43;;;;;;;8.90;8.00;;;4.90;99.90;;;;;;5069016;28;20454;-50
2021/01/31 00:50:24;;;;;;;8.97;7.73;;;4.70;99.90;;;;;;5070396;28;20380;-50
2021/01/31 00:52:50;;;;;;;11.25;8.50;;;4.90;99.90;;;;;;5070512;28;20181;-49
2021/01/31 00:55:16;;;;;;;9.10;8.17;;;4.50;99.90;;;;;;5070041;28;20202;-50
2021/01/31 00:57:42;;;;;;;10.37;9.23;;;4.80;99.90;;;;;;5070185;28;20810;-50
2021/01/31 01:00:21;;;;;;;10.13;8.50;;;4.60;99.90;;;;;;5074433;28;20489;-49
2021/01/31 01:02:47;;;;;;;9.50;8.00;;;4.60;99.90;;;;;;5058586;28;20244;-50
2021/01/31 01:05:15;;;;;;;9.80;8.73;;;4.90;99.90;;;;;;5069303;28;20205;-50
2021/01/31 01:07:43;;;;;;;8.23;7.43;;;4.80;99.90;;;;;;5083156;28;20201;-50
2021/01/31 01:10:10;;;;;;;10.75;7.80;;;4.70;99.90;;;;;;5086248;28;20333;-50
2021/01/31 01:12:36;;;;;;;9.93;7.47;;;4.50;99.90;;;;;;5054817;28;20300;-50
2021/01/31 01:15:02;;;;;;;9.73;8.20;;;4.90;99.90;;;;;;5063485;28;20320;-50
2021/01/31 01:17:28;;;;;;;10.40;8.90;;;5.00;99.90;;;;;;5088989;28;20940;-50
2021/01/31 01:19:54;;;;;;;8.43;7.63;;;5.10;99.90;;;;;;5070463;28;20206;-50
2021/01/31 01:22:19;;;;;;;10.70;9.60;;;5.00;99.90;;;;;;5069675;28;20247;-50
2021/01/31 01:24:52;;;;;;;9.10;8.20;;;5.10;99.90;;;;;;5062903;28;20216;-51
2021/01/31 01:27:21;;;;;;;9.18;7.78;;;4.80;99.90;;;;;;5069994;28;20199;-50
2021/01/31 01:29:47;;;;;;;8.85;7.95;;;4.80;99.90;;;;;;5062264;28;20260;-51
2021/01/31 01:32:13;;;;;;;9.23;8.23;;;4.80;99.90;;;;;;5066216;28;20193;-51
2021/01/31 01:34:39;;;;;;;10.10;8.73;;;4.70;99.90;;;;;;5060457;28;20209;-50
2021/01/31 01:37:09;;;;;;;9.87;8.47;;;4.70;99.90;;;;;;5067849;28;20185;-51
2021/01/31 01:39:35;;;;;;;11.30;8.25;;;5.00;99.90;;;;;;5082169;28;20482;-51
2021/01/31 01:42:01;;;;;;;9.95;8.55;;;4.90;99.90;;;;;;5057608;28;20599;-50
2021/01/31 01:44:27;;;;;;;9.57;7.47;;;5.00;99.90;;;;;;5066149;28;20202;-50
2021/01/31 01:46:54;;;;;;;9.00;8.00;;;5.20;99.90;;;;;;5077851;28;20948;-51
2021/01/31 01:49:24;;;;;;;9.40;8.45;;;5.10;99.90;;;;;;5077465;28;20633;-51
2021/01/31 01:51:55;;;;;;;10.02;8.93;;;5.10;99.90;;;;;;5069599;28;20415;-51
2021/01/31 01:54:27;;;;;;;10.32;8.38;;;5.10;99.90;;;;;;5067412;28;20259;-52
2021/01/31 01:56:58;;;;;;;7.65;6.85;;;5.10;99.90;;;;;;5054114;28;20336;-51
2021/01/31 01:59:24;;;;;;;8.80;7.45;;;4.70;99.90;;;;;;5081876;28;20184;-50
2021/01/31 02:02:05;;;;;;;9.82;8.27;;;4.80;99.90;;;;;;5067747;28;20306;-51
2021/01/31 02:04:31;;;;;;;8.18;7.35;;;5.00;99.90;;;;;;5075574;28;20594;-51
2021/01/31 02:06:57;;;;;;;9.52;7.45;;;4.90;99.90;;;;;;5076557;28;20249;-51
2021/01/31 02:09:22;;;;;;;10.07;8.97;;;5.10;99.90;;;;;;5068711;28;20303;-51
2021/01/31 02:11:53;;;;;;;9.20;7.40;;;5.00;99.90;;;;;;5061568;28;20215;-51
2021/01/31 02:14:19;;;;;;;9.90;7.22;;;5.20;99.90;;;;;;5069497;28;20223;-51
2021/01/31 02:16:53;;;;;;;7.80;7.03;;;5.00;99.90;;;;;;5068449;28;20574;-50
2021/01/31 02:19:18;;;;;;;7.78;6.97;;;5.00;99.90;;;;;;5065618;28;20182;-51
2021/01/31 02:21:58;;;;;;;7.80;7.00;;;5.10;99.90;;;;;;5068126;28;20659;-51
2021/01/31 02:24:51;;;;;;;7.82;7.00;;;4.90;99.90;;;;;;5060818;28;20669;-51
2021/01/31 02:27:35;;;;;;;7.50;6.65;;;5.00;99.90;;;;;;5060697;28;20182;-50
2021/01/31 02:30:25;;;;;;;7.25;6.55;;;4.90;99.90;;;;;;5066571;28;20220;-51
2021/01/31 02:33:25;;;;;;;10.18;7.85;;;4.60;99.90;;;;;;5068708;28;20312;-51
2021/01/31 02:35:59;;;;;;;7.82;6.43;;;4.60;99.90;;;;;;5066511;28;20174;-51
2021/01/31 02:38:30;;;;;;;8.88;6.80;;;4.90;99.90;;;;;;5069460;28;20186;-50
2021/01/31 02:41:02;;;;;;;8.05;7.30;;;4.70;99.90;;;;;;5054565;28;20226;-50
2021/01/31 02:43:42;;;;;;;8.65;7.28;;;4.70;99.90;;;;;;5072246;28;20750;-51
2021/01/31 02:46:20;;;;;;;8.00;7.20;;;4.60;99.90;;;;;;5061794;28;20213;-51
2021/01/31 02:48:59;;;;;;;8.35;6.55;;;4.70;99.90;;;;;;5051405;28;20190;-50
2021/01/31 02:51:37;;;;;;;7.70;6.93;;;4.50;99.90;;;;;;5067156;28;20207;-51
2021/01/31 02:54:10;;;;;;;6.95;6.25;;;4.50;99.90;;;;;;5069592;28;20203;-50
2021/01/31 02:56:41;;;;;;;9.07;7.25;;;4.80;99.90;;;;;;5060121;28;20182;-51
2021/01/31 02:59:13;;;;;;;9.80;7.43;;;4.50;99.90;;;;;;5073491;28;20770;-50
2021/01/31 03:01:47;;;;;;;8.00;7.25;;;4.40;99.90;;;;;;5061945;28;20603;-51
2021/01/31 03:04:21;;;;;;;7.60;6.85;;;4.40;99.90;;;;;;5047970;28;20461;-51
2021/01/31 03:07:00;;;;;;;8.90;8.00;;;4.40;99.90;;;;;;5061852;28;20277;-50
2021/01/31 03:09:45;;;;;;;8.10;7.30;;;4.60;99.90;;;;;;5067794;28;20675;-50
2021/01/31 03:12:17;;;;;;;8.15;7.32;;;4.70;99.90;;;;;;5066488;28;20716;-50
2021/01/31 03:14:50;;;;;;;8.30;7.40;;;4.60;99.90;;;;;;5061931;28;20706;-51
2021/01/31 03:17:24;;;;;;;7.85;7.05;;;4.40;99.90;;;;;;5055570;28;20186;-51
2021/01/31 03:19:56;;;;;;;8.30;7.28;;;4.70;99.90;;;;;;5060184;28;20588;-50
2021/01/31 03:22:27;;;;;;;8.45;7.65;;;4.50;99.90;;;;;;5061615;28;20189;-50
2021/01/31 03:25:10;;;;;;;8.05;6.78;;;4.50;99.90;;;;;;5078808;28;20676;-50
2021/01/31 03:27:39;;;;;;;9.98;8.10;;;4.30;99.90;;;;;;5061821;28;20193;-51
2021/01/31 03:30:07;;;;;;;8.55;7.75;;;4.50;99.90;;;;;;5076175;28;20742;-50
2021/01/31 03:32:41;;;;;;;8.85;7.95;;;4.60;99.90;;;;;;5079611;28;20188;-50
2021/01/31 03:35:14;;;;;;;9.15;7.75;;;4.60;99.90;;;;;;5076211;28;20554;-50
2021/01/31 03:38:06;;;;;;;10.05;8.60;;;4.50;99.90;;;;;;5059270;28;20599;-51
2021/01/31 03:40:32;;;;;;;10.10;8.40;;;4.50;99.90;;;;;;5066339;28;20235;-51
2021/01/31 03:42:57;;;;;;;8.73;7.53;;;4.50;99.90;;;;;;5056150;28;20640;-51
2021/01/31 03:45:28;;;;;;;10.10;8.13;;;4.30;99.90;;;;;;5066276;28;20526;-50
2021/01/31 03:48:07;;;;;;;9.43;7.85;;;4.60;99.90;;;;;;5069104;28;20191;-51
2021/01/31 03:50:33;;;;;;;8.60;7.40;;;4.60;99.90;;;;;;5056825;28;20362;-50
2021/01/31 03:52:59;;;;;;;8.97;7.73;;;4.60;99.90;;;;;;5067372;28;20264;-51
2021/01/31 03:55:25;;;;;;;8.63;7.72;;;4.50;99.90;;;;;;5067947;28;20458;-50
2021/01/31 03:58:00;;;;;;;10.00;7.70;;;4.60;99.90;;;;;;5061918;28;20654;-50
2021/01/31 04:00:35;;;;;;;8.77;7.65;;;4.30;99.90;;;;;;5056831;28;20466;-50
2021/01/31 04:03:12;;;;;;;9.20;6.75;;;4.40;99.90;;;;;;5064420;28;20393;-51
2021/01/31 04:05:45;;;;;;;10.45;8.50;;;4.60;99.90;;;;;;5063070;28;20723;-50
2021/01/31 04:08:13;;;;;;;9.88;8.70;;;4.80;99.90;;;;;;5058857;28;20189;-51
2021/01/31 04:10:42;;;;;;;11.00;9.00;;;4.60;99.90;;;;;;5066635;28;20216;-50
2021/01/31 04:13:10;;;;;;;9.07;8.13;;;4.80;99.90;;;;;;5066416;28;20672;-51
2021/01/31 04:15:44;;;;;;;11.30;9.20;;;4.90;99.90;;;;;;5059334;28;20193;-51
2021/01/31 04:18:11;;;;;;;10.88;9.30;;;4.70;99.90;;;;;;5055820;28;20212;-51
2021/01/31 04:20:37;;;;;;;10.50;9.35;;;4.60;99.90;;;;;;5067965;28;20185;-51
2021/01/31 04:23:04;;;;;;;10.40;8.85;;;4.50;99.90;;;;;;5064175;28;20208;-51
2021/01/31 04:25:29;;;;;;;11.93;9.48;;;4.50;99.90;;;;;;5063191;28;20185;-51
2021/01/31 04:27:56;;;;;;;11.20;8.77;;;4.60;99.90;;;;;;5067144;28;20687;-51
2021/01/31 04:30:22;;;;;;;11.30;9.20;;;4.80;99.90;;;;;;5065508;28;20528;-50
2021/01/31 04:32:48;;;;;;;9.13;8.02;;;4.60;99.90;;;;;;5068488;28;20280;-50
2021/01/31 04:35:15;;;;;;;8.93;8.03;;;4.80;99.90;;;;;;5067592;28;20289;-50
2021/01/31 04:37:41;;;;;;;9.57;7.45;;;4.60;99.90;;;;;;5069640;28;20186;-51
2021/01/31 04:40:10;;;;;;;10.02;7.95;;;4.60;99.90;;;;;;5064731;28;20530;-50
2021/01/31 04:42:36;;;;;;;9.48;7.60;;;4.90;99.90;;;;;;5065013;28;20193;-50
2021/01/31 04:45:05;;;;;;;9.50;8.30;;;4.80;99.90;;;;;;5070441;28;20208;-51
2021/01/31 04:47:38;;;;;;;8.65;7.53;;;4.50;99.90;;;;;;5070235;28;20177;-50
2021/01/31 04:50:28;;;;;;;9.00;7.63;;;4.70;99.90;;;;;;5067876;28;20263;-50
2021/01/31 04:53:24;;;;;;;9.48;8.10;;;4.40;99.90;;;;;;5068122;28;20200;-51
2021/01/31 04:56:22;;;;;;;9.40;8.45;;;4.60;99.90;;;;;;5062750;28;20217;-50
2021/01/31 04:58:50;;;;;;;9.77;8.43;;;4.70;99.90;;;;;;5064726;28;20368;-50
2021/01/31 05:01:22;;;;;;;9.93;7.68;;;4.80;99.90;;;;;;5068072;28;20635;-51
2021/01/31 05:04:03;;;;;;;9.93;8.35;;;4.60;99.90;;;;;;5085451;28;20299;-51
2021/01/31 05:06:47;;;;;;;11.52;8.73;;;4.80;99.90;;;;;;5086961;28;20192;-50
2021/01/31 05:09:19;;;;;;;9.88;8.48;;;4.80;99.90;;;;;;5070476;28;20215;-51
2021/01/31 05:12:22;;;;;;;8.90;7.70;;;4.80;99.90;;;;;;5066872;28;20188;-51
2021/01/31 05:14:53;;;;;;;10.43;8.27;;;4.50;99.90;;;;;;5072374;28;20209;-51
2021/01/31 05:17:19;;;;;;;10.93;8.75;;;4.80;99.90;;;;;;5070360;28;20181;-51
2021/01/31 05:19:45;;;;;;;10.68;9.23;;;4.80;99.90;;;;;;5074205;28;20194;-51
2021/01/31 05:22:14;;;;;;;10.70;8.40;;;4.40;99.90;;;;;;5076406;28;20607;-51
2021/01/31 05:24:40;;;;;;;9.43;8.00;;;4.40;99.90;;;;;;5078647;28;20214;-51
2021/01/31 05:27:07;;;;;;;9.30;8.07;;;4.80;99.90;;;;;;5071704;28;20201;-50
2021/01/31 05:29:38;;;;;;;9.02;8.00;;;4.70;99.90;;;;;;5064467;28;20467;-51
2021/01/31 05:32:06;;;;;;;9.15;8.20;;;4.70;99.90;;;;;;5070223;28;20221;-50
2021/01/31 05:34:41;;;;;;;8.65;7.75;;;4.40;99.90;;;;;;5068103;28;20200;-51
2021/01/31 05:37:26;;;;;;;10.73;8.50;;;4.70;99.90;;;;;;5057027;28;20189;-51
2021/01/31 05:40:06;;;;;;;10.57;8.82;;;4.50;99.90;;;;;;5086897;28;20195;-50
2021/01/31 05:42:40;;;;;;;9.75;8.75;;;4.50;99.90;;;;;;5059773;28;20189;-50
2021/01/31 05:45:18;;;;;;;9.30;8.20;;;4.50;99.90;;;;;;5061906;28;20675;-50
2021/01/31 05:47:46;;;;;;;9.07;7.53;;;4.60;99.90;;;;;;5066696;28;20276;-51
2021/01/31 05:50:34;;;;;;;8.75;7.85;;;4.80;99.90;;;;;;5064211;28;20215;-51
2021/01/31 05:53:37;;;;;;;10.07;8.60;;;4.60;99.90;;;;;;5066725;28;20185;-50
2021/01/31 05:56:12;;;;;;;9.25;7.93;;;4.80;99.90;;;;;;5072430;28;20176;-50
2021/01/31 05:58:38;;;;;;;9.70;8.50;;;4.50;99.90;;;;;;5068910;28;20199;-51
2021/01/31 06:01:10;;;;;;;9.37;8.37;;;4.20;99.90;;;;;;5069178;28;20181;-51
2021/01/31 06:03:36;;;;;;;9.07;7.93;;;4.60;99.90;;;;;;5068789;28;20254;-50
2021/01/31 06:06:08;;;;;;;8.38;7.57;;;4.50;99.90;;;;;;5067809;28;20239;-50
2021/01/31 06:08:34;;;;;;;9.07;7.30;;;4.50;99.90;;;;;;5068542;28;20239;-51
2021/01/31 06:11:08;;;;;;;9.60;8.40;;;4.30;99.90;;;;;;5065410;28;20209;-51
2021/01/31 06:13:35;;;;;;;9.98;8.75;;;4.40;99.90;;;;;;5067706;28;20505;-50
2021/01/31 06:16:06;;;;;;;8.80;7.57;;;4.60;99.90;;;;;;5066871;28;20177;-50
2021/01/31 06:18:34;;;;;;;8.25;7.35;;;4.50;99.90;;;;;;5061675;28;20588;-51
2021/01/31 06:21:18;;;;;;;9.65;8.10;;;4.40;99.90;;;;;;5059565;28;20513;-51
2021/01/31 06:23:47;;;;;;;9.35;8.15;;;4.60;99.90;;;;;;5068411;28;20226;-51
2021/01/31 06:26:29;;;;;;;8.25;7.45;;;4.60;99.90;;;;;;5067161;28;20250;-51
2021/01/31 06:29:02;;;;;;;8.98;8.02;;;4.40;99.90;;;;;;5066497;28;20243;-50
2021/01/31 06:31:37;;;;;;;11.05;8.40;;;4.30;99.90;;;;;;5064762;28;20221;-51
2021/01/31 06:34:03;;;;;;;9.73;8.23;;;4.40;99.90;;;;;;5062883;28;20205;-51
2021/01/31 06:36:43;;;;;;;10.50;8.23;;;4.50;99.90;;;;;;5079766;28;20408;-51
2021/01/31 06:39:30;;;;;;;9.18;8.20;;;4.60;99.90;;;;;;5068976;28;20260;-51
2021/01/31 06:42:30;;;;;;;9.00;7.68;;;4.30;99.90;;;;;;5048546;28;20266;-51
2021/01/31 06:45:38;;;;;;;10.25;8.43;;;4.50;99.90;;;;;;5060124;28;20211;-51
2021/01/31 06:48:24;;;;;;;9.52;8.55;;;4.60;99.90;;;;;;5061432;28;20217;-51
2021/01/31 06:51:27;;;;;;;8.43;7.20;;;4.60;99.90;;;;;;5058865;28;20657;-50
2021/01/31 06:54:11;;;;;;;8.82;7.82;;;4.50;99.90;;;;;;5060626;28;20211;-51
2021/01/31 06:57:14;;;;;;;8.98;8.07;;;4.50;99.90;;;;;;5059552;28;20271;-51
2021/01/31 07:00:01;;;;;;;9.23;7.57;;;4.50;99.90;;;;;;5051144;28;20249;-47
2021/01/31 07:02:57;;;;;;;8.45;7.13;;;4.60;99.90;;;;;;5065460;28;20215;-47
2021/01/31 07:05:50;;;;;;;7.32;6.55;;;4.80;99.90;;;;;;5066971;28;20221;-51
2021/01/31 07:08:41;;;;;;;11.80;8.15;;;5.90;99.90;;;;;;5065336;28;20217;-51
2021/01/31 07:11:17;;;;;;;9.25;7.90;;;5.80;99.90;;;;;;5059766;28;20207;-51
2021/01/31 07:13:58;;;;;;;9.45;7.68;;;5.70;99.90;;;;;;5057440;28;20206;-52
2021/01/31 07:16:34;;;;;;;7.88;7.07;;;5.50;99.90;;;;;;5059171;28;20638;-52
2021/01/31 07:19:18;;;;;;;9.88;7.57;;;5.20;99.90;;;;;;5060130;28;20174;-52
2021/01/31 07:22:20;;;;;;;7.72;6.95;;;4.90;99.90;;;;;;5067238;28;20238;-52
2021/01/31 07:25:33;;;;;;;9.05;8.10;;;5.00;99.90;;;;;;5062579;28;20209;-51
2021/01/31 07:28:29;;;;;;;8.68;7.18;;;5.00;99.90;;;;;;5006926;28;20182;-53
2021/01/31 07:31:18;;;;;;;8.77;7.25;;;4.90;99.90;;;;;;5003764;28;20743;-51
2021/01/31 07:33:51;;;;;;;8.73;7.82;;;4.30;99.90;;;;;;5054530;28;20260;-51
2021/01/31 07:36:25;;;;;;;9.32;8.30;;;4.60;99.90;;;;;;5055788;28;20640;-51
2021/01/31 07:39:00;;;;;;;8.90;7.90;;;4.80;99.90;;;;;;5060884;28;20216;-51
2021/01/31 07:41:27;;;;;;;10.38;8.48;;;4.70;99.90;;;;;;5057248;28;20615;-51
2021/01/31 07:43:58;;;;;;;11.05;7.72;;;4.90;99.90;;;;;;5063812;28;20748;-52
2021/01/31 07:46:24;;;;;;;9.23;8.15;;;4.60;99.90;;;;;;5061839;28;20210;-52
2021/01/31 07:48:52;;;;;;;9.07;8.17;;;4.90;99.90;;;;;;5066004;28;20652;-52
2021/01/31 07:51:27;;;;;;;9.63;7.97;;;4.90;99.90;;;;;;5059924;28;20959;-51
2021/01/31 07:53:55;;;;;;;8.68;7.78;;;4.60;99.90;;;;;;5058137;28;20193;-50
2021/01/31 07:56:26;;;;;;;8.07;7.20;;;4.80;99.90;;;;;;5059779;28;20660;-51
2021/01/31 07:59:10;;;;;;;9.15;7.78;;;4.40;99.90;;;;;;5066128;28;20717;-51
2021/01/31 08:01:36;;;;;;;8.95;7.50;;;4.50;99.90;;;;;;5060140;28;20268;-52
2021/01/31 08:04:17;;;;;;;8.63;7.40;;;4.80;99.90;;;;;;5062522;28;20308;-52
2021/01/31 08:06:55;;;;;;;9.50;8.15;;;4.60;99.90;;;;;;5060595;28;20243;-52
2021/01/31 08:09:27;;;;;;;9.38;7.90;;;4.20;99.90;;;;;;5058470;28;20184;-51
2021/01/31 08:12:28;;;;;;;9.30;7.55;;;4.80;99.90;;;;;;5064167;28;20718;-52
2021/01/31 08:15:11;;;;;;;9.52;8.15;;;4.80;99.90;;;;;;5045206;28;20720;-52
2021/01/31 08:17:55;;;;;;;9.25;8.00;;;4.80;99.90;;;;;;5058799;28;20182;-51
2021/01/31 08:20:20;;;;;;;9.27;8.27;;;5.00;99.90;;;;;;5064748;28;20197;-52
2021/01/31 08:22:46;;;;;;;9.83;8.30;;;5.30;99.90;;;;;;5064410;28;21930;-53
2021/01/31 08:25:12;;;;;;;9.07;8.10;;;5.20;99.90;;;;;;5059213;28;20239;-51
2021/01/31 08:27:37;;;;;;;8.77;7.77;;;5.20;99.90;;;;;;5065109;28;20181;-52
2021/01/31 08:30:22;;;;;;;8.67;7.57;;;5.20;99.90;;;;;;5067404;28;20627;-50
2021/01/31 08:33:00;;;;;;;9.55;7.95;;;5.00;99.90;;;;;;5064839;28;20229;-51
2021/01/31 08:35:41;;;;;;;8.95;7.40;;;5.20;99.90;;;;;;5065432;28;20654;-50
2021/01/31 08:38:16;;;;;;;8.52;7.57;;;4.90;99.90;;;;;;5065014;28;20613;-51
2021/01/31 08:41:04;;;;;;;14.93;8.10;;;5.20;99.90;;;;;;5073012;28;20677;-51
2021/01/31 08:43:47;;;;;;;8.85;7.63;;;5.40;99.90;;;;;;5062596;28;20563;-51
2021/01/31 08:46:31;;;;;;;9.65;8.23;;;5.10;99.90;;;;;;5057822;28;20677;-51
2021/01/31 08:49:02;;;;;;;8.63;7.43;;;5.40;99.90;;;;;;5056699;28;20198;-50
2021/01/31 08:51:27;;;;;;;9.55;8.15;;;5.30;99.90;;;;;;5062012;28;20210;-50
2021/01/31 08:54:07;;;;;;;9.13;8.23;;;5.30;99.90;;;;;;5086378;28;20201;-51
2021/01/31 08:56:35;;;;;;;10.82;8.65;;;5.20;99.90;;;;;;5064208;28;20177;-50
2021/01/31 08:59:02;;;;;;;8.60;7.80;;;5.50;99.90;;;;;;5060404;28;20204;-50
2021/01/31 09:01:28;;;;;;;7.57;6.72;;;5.50;99.90;;;;;;5068254;28;20208;-50
2021/01/31 09:03:54;;;;;;;9.75;7.97;;;5.50;99.90;;;;;;5057788;28;20217;-52
2021/01/31 09:06:20;;;;;;;8.33;7.10;;;5.50;99.90;;;;;;5061918;28;20185;-50
2021/01/31 09:08:52;;;;;;;8.57;7.68;;;5.50;99.90;;;;;;5066109;28;20428;-50
2021/01/31 09:11:22;;;;;;;7.85;6.80;;;5.60;99.90;;;;;;5079532;28;20696;-50
2021/01/31 09:13:47;;;;;;;7.65;6.88;;;5.40;99.90;;;;;;5061806;28;20216;-50
2021/01/31 09:16:24;;;;;;;7.10;6.40;;;5.40;99.90;;;;;;5047663;28;20226;-51
2021/01/31 09:19:25;;;;;;;8.27;7.40;;;5.40;99.90;;;;;;5074128;28;20192;-51
2021/01/31 09:22:03;;;;;;;8.45;7.55;;;5.70;99.90;;;;;;5067443;28;20193;-50
2021/01/31 09:24:37;;;;;;;8.27;7.35;;;5.60;99.90;;;;;;5057153;28;20199;-50
2021/01/31 09:27:06;;;;;;;8.43;7.55;;;5.40;99.90;;;;;;5062151;28;20205;-49
2021/01/31 09:29:32;;;;;;;9.07;7.05;;;5.30;99.90;;;;;;5065032;28;20238;-49
2021/01/31 09:32:17;;;;;;;8.52;7.63;;;5.40;99.90;;;;;;5059899;28;20546;-51
2021/01/31 09:34:43;;;;;;;8.25;7.40;;;5.60;99.90;;;;;;5073966;28;20199;-50
2021/01/31 09:37:22;;;;;;;8.90;7.30;;;5.90;99.90;;;;;;5061502;28;20202;-50
2021/01/31 09:39:48;;;;;;;9.98;7.65;;;5.70;99.90;;;;;;5083563;28;20242;-50
2021/01/31 09:42:16;;;;;;;7.90;7.03;;;5.90;99.90;;;;;;5068542;28;20182;-50
2021/01/31 09:44:50;;;;;;;8.23;7.32;;;5.80;99.90;;;;;;5059855;28;20204;-50
2021/01/31 09:47:19;;;;;;;9.45;7.30;;;6.20;99.90;;;;;;5071171;28;20218;-50
2021/01/31 09:49:53;;;;;;;8.88;7.93;;;6.00;99.90;;;;;;5074284;28;20259;-50
2021/01/31 09:52:19;;;;;;;9.80;8.30;;;5.80;99.90;;;;;;5071735;28;20252;-50
2021/01/31 09:54:45;;;;;;;8.93;7.67;;;5.70;99.90;;;;;;5069045;28;20654;-50
2021/01/31 09:57:24;;;;;;;8.70;7.80;;;5.80;99.90;;;;;;5060929;28;20523;-50
2021/01/31 10:00:05;;;;;;;8.55;7.63;;;5.90;99.90;;;;;;5067865;28;20249;-50
2021/01/31 10:02:31;;;;;;;8.63;7.75;;;5.90;99.90;;;;;;5069235;28;20238;-50
2021/01/31 10:05:10;;;;;;;8.15;7.35;;;5.90;99.90;;;;;;5056394;28;20255;-49
2021/01/31 10:07:39;;;;;;;8.70;7.20;;;5.60;99.90;;;;;;5059712;28;20195;-50
2021/01/31 10:10:23;;;;;;;7.35;6.60;;;5.90;99.90;;;;;;5063117;28;20216;-48
2021/01/31 10:12:50;;;;;;;8.90;7.63;;;5.90;99.90;;;;;;5061553;28;20275;-51
2021/01/31 10:15:38;;;;;;;8.10;7.30;;;6.00;99.90;;;;;;5064829;28;20227;-50
2021/01/31 10:18:10;;;;;;;9.07;7.80;;;5.90;99.90;;;;;;5068535;28;20189;-51
2021/01/31 10:20:39;;;;;;;10.32;8.20;;;6.30;99.90;;;;;;5069938;28;20560;-50
2021/01/31 10:23:09;;;;;;;9.80;8.07;;;5.90;99.90;;;;;;5068702;28;20184;-51
2021/01/31 10:25:41;;;;;;;8.85;7.75;;;6.20;99.90;;;;;;5062425;28;20191;-48
2021/01/31 10:28:12;;;;;;;8.10;7.25;;;6.40;99.90;;;;;;5064681;28;20236;-51
2021/01/31 10:30:47;;;;;;;8.10;7.10;;;6.50;99.90;;;;;;5062923;28;20767;-48
2021/01/31 10:33:43;;;;;;;7.93;7.13;;;6.70;99.90;;;;;;5068595;28;20207;-49
2021/01/31 10:36:15;;;;;;;7.80;7.05;;;6.70;99.90;;;;;;5059371;28;20636;-49
2021/01/31 10:38:43;;;;;;;9.80;6.70;;;7.10;99.90;;;;;;5067181;28;20220;-49
2021/01/31 10:41:10;;;;;;;7.85;7.05;;;6.90;99.90;;;;;;5061895;28;20679;-49
2021/01/31 10:43:36;;;;;;;8.00;7.20;;;6.90;99.90;;;;;;5065256;28;20216;-49
2021/01/31 10:46:02;;;;;;;8.33;7.53;;;7.00;99.90;;;;;;5075684;28;20177;-50
2021/01/31 10:48:27;;;;;;;9.03;8.13;;;7.10;99.90;;;;;;5074142;28;20183;-50
2021/01/31 10:50:53;;;;;;;10.23;8.53;;;6.90;99.90;;;;;;5060419;28;20258;-50
2021/01/31 10:53:19;;;;;;;8.80;7.77;;;6.90;99.90;;;;;;5078903;28;20613;-50
2021/01/31 10:55:44;;;;;;;11.93;8.70;;;6.90;99.90;;;;;;5070763;28;20201;-51
2021/01/31 10:58:10;;;;;;;11.17;8.97;;;6.30;99.90;;;;;;5074895;28;20192;-51
2021/01/31 11:00:42;;;;;;;10.17;7.50;;;6.40;99.90;;;;;;5059322;28;20216;-50
2021/01/31 11:03:07;;;;;;;8.63;7.45;;;6.90;99.90;;;;;;5082094;28;20188;-51
2021/01/31 11:05:33;;;;;;;8.50;7.70;;;6.80;99.90;;;;;;5066243;28;20192;-50
2021/01/31 11:07:59;;;;;;;10.00;8.27;;;7.10;99.90;;;;;;5060545;28;20415;-50
2021/01/31 11:10:25;;;;;;;9.30;7.90;;;6.60;99.90;;;;;;5064739;28;20436;-51
2021/01/31 11:12:50;;;;;;;10.10;7.87;;;6.80;99.90;;;;;;5058620;28;20226;-50
2021/01/31 11:15:18;;;;;;;9.37;7.70;;;6.80;99.90;;;;;;5058624;28;20459;-50
2021/01/31 11:17:43;;;;;;;9.13;8.20;;;6.70;99.90;;;;;;5066746;28;20269;-51
2021/01/31 11:20:10;;;;;;;8.43;7.63;;;6.70;99.90;;;;;;5073048;28;20195;-50
2021/01/31 11:22:36;;;;;;;8.57;7.43;;;6.10;99.90;;;;;;5072225;28;20200;-51
2021/01/31 11:25:04;;;;;;;8.75;7.85;;;6.40;99.90;;;;;;5064438;28;20204;-50
2021/01/31 11:27:29;;;;;;;11.55;7.65;;;6.80;99.90;;;;;;5060258;28;20193;-52
2021/01/31 11:29:55;;;;;;;9.43;8.33;;;7.20;99.90;;;;;;5060571;28;20270;-51
2021/01/31 11:32:20;;;;;;;9.10;7.70;;;6.60;99.90;;;;;;5056876;28;20189;-51
2021/01/31 11:34:46;;;;;;;8.23;7.33;;;7.10;99.90;;;;;;5058680;28;20232;-52
2021/01/31 11:37:12;;;;;;;9.83;8.33;;;7.20;99.90;;;;;;5059849;28;20242;-52
2021/01/31 11:39:38;;;;;;;8.85;7.72;;;7.20;99.90;;;;;;5047220;28;20238;-52
2021/01/31 11:42:04;;;;;;;8.10;7.23;;;7.40;99.90;;;;;;5061241;28;20178;-52
2021/01/31 11:44:29;;;;;;;9.07;7.97;;;7.40;99.90;;;;;;5059765;28;20211;-52
2021/01/31 11:46:55;;;;;;;8.60;7.60;;;7.60;99.90;;;;;;5066082;28;20185;-51
2021/01/31 11:49:21;;;;;;;7.90;7.10;;;7.60;99.90;;;;;;5064350;28;20422;-52
2021/01/31 11:51:46;;;;;;;9.70;7.83;;;7.30;99.90;;;;;;5056118;28;20186;-52
2021/01/31 11:54:12;;;;;;;7.90;7.10;;;7.50;99.90;;;;;;5064899;28;20312;-51
2021/01/31 11:56:38;;;;;;;8.53;7.73;;;7.30;99.90;;;;;;5063897;28;20626;-51
2021/01/31 11:59:04;;;;;;;9.03;7.77;;;7.30;99.90;;;;;;5065307;28;20712;-51
2021/01/31 12:01:29;;;;;;;8.27;7.47;;;7.40;99.90;;;;;;5062022;28;20247;-52
2021/01/31 12:03:55;;;;;;;9.23;8.33;;;7.50;99.90;;;;;;5063376;28;20618;-52
2021/01/31 12:06:21;;;;;;;8.90;7.73;;;7.30;99.90;;;;;;5061141;28;20200;-53
2021/01/31 12:08:47;;;;;;;8.40;7.50;;;7.50;99.90;;;;;;5066890;28;20313;-52
2021/01/31 12:11:12;;;;;;;7.93;7.20;;;7.70;99.90;;;;;;5063903;28;20717;-52
2021/01/31 12:13:38;;;;;;;7.37;6.67;;;7.50;99.90;;;;;;5055617;28;20474;-52
2021/01/31 12:16:04;;;;;;;8.50;7.70;;;7.70;99.90;;;;;;5069586;28;20608;-51
2021/01/31 12:18:30;;;;;;;7.00;6.30;;;7.30;99.90;;;;;;5062458;28;20196;-52
2021/01/31 12:20:56;;;;;;;8.73;7.10;;;7.60;99.90;;;;;;5064424;28;20194;-51
2021/01/31 12:23:21;;;;;;;8.53;7.70;;;7.50;99.90;;;;;;5060323;28;20240;-51
2021/01/31 12:25:47;;;;;;;8.63;7.30;;;6.80;99.90;;;;;;5062019;28;20192;-51
2021/01/31 12:28:14;;;;;;;8.73;7.13;;;7.50;99.90;;;;;;5064773;28;20177;-51
2021/01/31 12:30:40;;;;;;;8.15;7.30;;;7.30;99.90;;;;;;5064255;28;20475;-51
2021/01/31 12:33:06;;;;;;;8.40;7.50;;;7.40;99.90;;;;;;5064654;28;20651;-52
2021/01/31 12:35:32;;;;;;;8.60;7.70;;;7.10;99.90;;;;;;5058738;28;20243;-51
2021/01/31 12:37:58;;;;;;;7.75;6.95;;;7.30;99.90;;;;;;5062752;28;20842;-51
2021/01/31 12:40:27;;;;;;;8.30;7.30;;;7.40;99.90;;;;;;5066788;28;20189;-50
2021/01/31 12:42:52;;;;;;;7.30;6.60;;;7.60;99.90;;;;;;5064358;28;20445;-51
2021/01/31 12:45:20;;;;;;;7.17;6.47;;;7.30;99.90;;;;;;5064262;28;20208;-51
2021/01/31 12:47:47;;;;;;;9.45;7.28;;;7.40;99.90;;;;;;5067478;28;20283;-51
2021/01/31 12:50:14;;;;;;;9.63;7.40;;;7.50;99.90;;;;;;5070144;28;20205;-52
2021/01/31 12:52:40;;;;;;;7.65;6.85;;;7.30;99.90;;;;;;5064981;28;20176;-50
2021/01/31 12:55:08;;;;;;;7.63;6.50;;;7.40;99.90;;;;;;5062669;28;20218;-52
2021/01/31 12:57:34;;;;;;;9.77;8.15;;;7.40;99.90;;;;;;5065638;28;20207;-51
2021/01/31 13:00:00;;;;;;;8.37;7.33;;;7.40;99.90;;;;;;5064413;28;20189;-51
2021/01/31 13:02:28;;;;;;;7.27;6.57;;;7.50;99.90;;;;;;5061741;28;20682;-52
2021/01/31 13:04:54;;;;;;;8.70;7.88;;;7.70;99.90;;;;;;5064755;28;20611;-51
2021/01/31 13:07:20;;;;;;;8.10;7.30;;;7.70;99.90;;;;;;5064500;28;20180;-51
2021/01/31 13:09:46;;;;;;;8.47;7.27;;;7.70;99.90;;;;;;5055931;28;20230;-51
2021/01/31 13:12:11;;;;;;;9.57;8.57;;;7.70;99.90;;;;;;5071581;28;20269;-51
2021/01/31 13:14:38;;;;;;;8.07;7.00;;;7.70;99.90;;;;;;5064909;28;20200;-51
2021/01/31 13:17:05;;;;;;;8.60;7.70;;;7.50;99.90;;;;;;5074186;28;20185;-51
2021/01/31 13:19:31;;;;;;;10.35;8.63;;;7.60;99.90;;;;;;5062089;28;20241;-52
2021/01/31 13:21:57;;;;;;;9.93;7.28;;;7.40;99.90;;;;;;5078681;28;20189;-51